sensor_id;sensor_type;location;lat;lon;timestamp;P1;durP1;ratioP1;P2;durP2;ratioP2
62790;SDS011;48830;53.426;10.300;2023-04-06T00:00:50;6.27;;;3.23;;
62790;SDS011;48830;53.426;10.300;2023-04-06T00:03:16;7.80;;;3.70;;
62790;SDS011;48830;53.426;10.300;2023-04-06T00:05:42;6.97;;;4.13;;
62790;SDS011;48830;53.426;10.300;2023-04-06T00:08:07;8.43;;;3.70;;
62790;SDS011;48830;53.426;10.300;2023-04-06T00:10:33;6.80;;;3.30;;
62790;SDS011;48830;53.426;10.300;2023-04-06T00:12:59;7.20;;;3.50;;
62790;SDS011;48830;53.426;10.300;2023-04-06T00:15:25;6.30;;;3.17;;
62790;SDS011;48830;53.426;10.300;2023-04-06T00:17:51;6.10;;;3.43;;
62790;SDS011;48830;53.426;10.300;2023-04-06T00:20:17;6.60;;;3.63;;
62790;SDS011;48830;53.426;10.300;2023-04-06T00:22:43;6.00;;;3.43;;
62790;SDS011;48830;53.426;10.300;2023-04-06T00:25:09;7.03;;;3.57;;
62790;SDS011;48830;53.426;10.300;2023-04-06T00:27:36;6.33;;;3.70;;
62790;SDS011;48830;53.426;10.300;2023-04-06T00:30:03;6.77;;;3.43;;
62790;SDS011;48830;53.426;10.300;2023-04-06T00:32:30;7.03;;;3.50;;
62790;SDS011;48830;53.426;10.300;2023-04-06T00:34:55;9.00;;;3.87;;
62790;SDS011;48830;53.426;10.300;2023-04-06T00:37:21;7.00;;;3.70;;
62790;SDS011;48830;53.426;10.300;2023-04-06T00:39:47;7.33;;;3.77;;
62790;SDS011;48830;53.426;10.300;2023-04-06T00:42:13;6.57;;;3.67;;
62790;SDS011;48830;53.426;10.300;2023-04-06T00:44:39;7.23;;;3.83;;
62790;SDS011;48830;53.426;10.300;2023-04-06T00:47:08;7.97;;;3.63;;
62790;SDS011;48830;53.426;10.300;2023-04-06T00:49:34;6.97;;;4.03;;
62790;SDS011;48830;53.426;10.300;2023-04-06T00:52:00;7.97;;;3.87;;
62790;SDS011;48830;53.426;10.300;2023-04-06T00:54:26;5.63;;;3.23;;
62790;SDS011;48830;53.426;10.300;2023-04-06T00:56:52;8.07;;;3.80;;
62790;SDS011;48830;53.426;10.300;2023-04-06T00:59:18;6.60;;;3.67;;
62790;SDS011;48830;53.426;10.300;2023-04-06T01:01:44;6.83;;;4.10;;
62790;SDS011;48830;53.426;10.300;2023-04-06T01:04:27;8.73;;;3.97;;
62790;SDS011;48830;53.426;10.300;2023-04-06T01:06:54;6.53;;;3.50;;
62790;SDS011;48830;53.426;10.300;2023-04-06T01:09:23;9.40;;;4.00;;
62790;SDS011;48830;53.426;10.300;2023-04-06T01:11:51;6.57;;;3.77;;
62790;SDS011;48830;53.426;10.300;2023-04-06T01:14:20;7.40;;;4.03;;
62790;SDS011;48830;53.426;10.300;2023-04-06T01:16:57;7.00;;;3.97;;
62790;SDS011;48830;53.426;10.300;2023-04-06T01:19:27;8.00;;;4.03;;
62790;SDS011;48830;53.426;10.300;2023-04-06T01:21:54;6.60;;;3.63;;
62790;SDS011;48830;53.426;10.300;2023-04-06T01:24:40;6.77;;;3.77;;
62790;SDS011;48830;53.426;10.300;2023-04-06T01:27:06;8.10;;;3.87;;
62790;SDS011;48830;53.426;10.300;2023-04-06T01:29:45;7.43;;;3.77;;
62790;SDS011;48830;53.426;10.300;2023-04-06T01:32:17;6.80;;;3.90;;
62790;SDS011;48830;53.426;10.300;2023-04-06T01:34:48;9.03;;;4.20;;
62790;SDS011;48830;53.426;10.300;2023-04-06T01:37:13;8.53;;;4.20;;
62790;SDS011;48830;53.426;10.300;2023-04-06T01:39:39;8.67;;;3.60;;
62790;SDS011;48830;53.426;10.300;2023-04-06T01:42:07;7.73;;;4.10;;
62790;SDS011;48830;53.426;10.300;2023-04-06T01:44:34;7.13;;;3.50;;
62790;SDS011;48830;53.426;10.300;2023-04-06T01:47:06;7.00;;;4.20;;
62790;SDS011;48830;53.426;10.300;2023-04-06T01:49:32;7.10;;;4.30;;
62790;SDS011;48830;53.426;10.300;2023-04-06T01:51:58;8.23;;;4.13;;
62790;SDS011;48830;53.426;10.300;2023-04-06T01:54:24;8.73;;;4.07;;
62790;SDS011;48830;53.426;10.300;2023-04-06T01:57:09;7.67;;;4.43;;
62790;SDS011;48830;53.426;10.300;2023-04-06T02:00:01;6.43;;;4.10;;
62790;SDS011;48830;53.426;10.300;2023-04-06T02:02:38;6.47;;;3.80;;
62790;SDS011;48830;53.426;10.300;2023-04-06T02:05:09;8.83;;;4.20;;
62790;SDS011;48830;53.426;10.300;2023-04-06T02:07:35;7.93;;;4.27;;
62790;SDS011;48830;53.426;10.300;2023-04-06T02:10:01;6.40;;;3.47;;
62790;SDS011;48830;53.426;10.300;2023-04-06T02:12:34;7.37;;;3.93;;
62790;SDS011;48830;53.426;10.300;2023-04-06T02:15:00;7.23;;;4.37;;
62790;SDS011;48830;53.426;10.300;2023-04-06T02:17:26;6.70;;;3.73;;
62790;SDS011;48830;53.426;10.300;2023-04-06T02:19:52;6.40;;;3.60;;
62790;SDS011;48830;53.426;10.300;2023-04-06T02:22:17;9.37;;;4.20;;
62790;SDS011;48830;53.426;10.300;2023-04-06T02:24:43;7.90;;;4.27;;
62790;SDS011;48830;53.426;10.300;2023-04-06T02:27:09;7.87;;;4.50;;
62790;SDS011;48830;53.426;10.300;2023-04-06T02:29:35;7.67;;;3.80;;
62790;SDS011;48830;53.426;10.300;2023-04-06T02:32:02;7.53;;;4.13;;
62790;SDS011;48830;53.426;10.300;2023-04-06T02:34:30;9.57;;;4.23;;
62790;SDS011;48830;53.426;10.300;2023-04-06T02:36:55;9.27;;;4.43;;
62790;SDS011;48830;53.426;10.300;2023-04-06T02:39:21;8.27;;;4.40;;
62790;SDS011;48830;53.426;10.300;2023-04-06T02:41:46;8.27;;;4.97;;
62790;SDS011;48830;53.426;10.300;2023-04-06T02:44:17;8.07;;;4.53;;
62790;SDS011;48830;53.426;10.300;2023-04-06T02:46:43;7.33;;;4.40;;
62790;SDS011;48830;53.426;10.300;2023-04-06T02:49:09;8.97;;;4.60;;
62790;SDS011;48830;53.426;10.300;2023-04-06T02:51:35;6.97;;;4.17;;
62790;SDS011;48830;53.426;10.300;2023-04-06T02:54:20;7.60;;;4.20;;
62790;SDS011;48830;53.426;10.300;2023-04-06T02:56:46;8.50;;;4.00;;
62790;SDS011;48830;53.426;10.300;2023-04-06T02:59:12;8.63;;;4.43;;
62790;SDS011;48830;53.426;10.300;2023-04-06T03:01:41;7.20;;;4.00;;
62790;SDS011;48830;53.426;10.300;2023-04-06T03:04:07;6.73;;;4.20;;
62790;SDS011;48830;53.426;10.300;2023-04-06T03:06:32;8.00;;;4.80;;
62790;SDS011;48830;53.426;10.300;2023-04-06T03:09:07;9.20;;;4.90;;
62790;SDS011;48830;53.426;10.300;2023-04-06T03:11:34;8.13;;;4.83;;
62790;SDS011;48830;53.426;10.300;2023-04-06T03:13:59;7.50;;;4.43;;
62790;SDS011;48830;53.426;10.300;2023-04-06T03:16:25;9.70;;;4.87;;
62790;SDS011;48830;53.426;10.300;2023-04-06T03:18:51;7.90;;;4.30;;
62790;SDS011;48830;53.426;10.300;2023-04-06T03:21:17;9.73;;;4.80;;
62790;SDS011;48830;53.426;10.300;2023-04-06T03:23:47;6.87;;;4.47;;
62790;SDS011;48830;53.426;10.300;2023-04-06T03:26:16;9.23;;;4.43;;
62790;SDS011;48830;53.426;10.300;2023-04-06T03:28:41;8.97;;;4.60;;
62790;SDS011;48830;53.426;10.300;2023-04-06T03:31:07;9.03;;;4.93;;
62790;SDS011;48830;53.426;10.300;2023-04-06T03:34:02;9.53;;;5.20;;
62790;SDS011;48830;53.426;10.300;2023-04-06T03:36:31;8.60;;;5.00;;
62790;SDS011;48830;53.426;10.300;2023-04-06T03:38:57;8.93;;;4.83;;
62790;SDS011;48830;53.426;10.300;2023-04-06T03:41:23;10.17;;;5.37;;
62790;SDS011;48830;53.426;10.300;2023-04-06T03:44:03;8.67;;;4.70;;
62790;SDS011;48830;53.426;10.300;2023-04-06T03:46:28;6.57;;;4.43;;
62790;SDS011;48830;53.426;10.300;2023-04-06T03:48:56;8.37;;;4.90;;
62790;SDS011;48830;53.426;10.300;2023-04-06T03:51:23;9.13;;;4.73;;
62790;SDS011;48830;53.426;10.300;2023-04-06T03:53:48;8.70;;;5.60;;
62790;SDS011;48830;53.426;10.300;2023-04-06T03:56:13;10.43;;;5.00;;
62790;SDS011;48830;53.426;10.300;2023-04-06T03:58:39;9.07;;;5.03;;
62790;SDS011;48830;53.426;10.300;2023-04-06T04:01:05;9.37;;;5.13;;
62790;SDS011;48830;53.426;10.300;2023-04-06T04:03:31;10.07;;;5.10;;
62790;SDS011;48830;53.426;10.300;2023-04-06T04:05:57;11.80;;;5.60;;
62790;SDS011;48830;53.426;10.300;2023-04-06T04:08:24;10.00;;;5.13;;
62790;SDS011;48830;53.426;10.300;2023-04-06T04:10:50;8.47;;;5.23;;
62790;SDS011;48830;53.426;10.300;2023-04-06T04:13:15;9.63;;;5.90;;
62790;SDS011;48830;53.426;10.300;2023-04-06T04:15:44;8.17;;;4.93;;
62790;SDS011;48830;53.426;10.300;2023-04-06T04:18:10;9.93;;;5.07;;
62790;SDS011;48830;53.426;10.300;2023-04-06T04:20:35;10.13;;;5.47;;
62790;SDS011;48830;53.426;10.300;2023-04-06T04:23:01;9.17;;;5.27;;
62790;SDS011;48830;53.426;10.300;2023-04-06T04:25:30;10.20;;;5.30;;
62790;SDS011;48830;53.426;10.300;2023-04-06T04:27:55;10.93;;;6.00;;
62790;SDS011;48830;53.426;10.300;2023-04-06T04:30:22;9.40;;;5.20;;
62790;SDS011;48830;53.426;10.300;2023-04-06T04:32:47;10.27;;;5.90;;
62790;SDS011;48830;53.426;10.300;2023-04-06T04:35:16;9.17;;;5.33;;
62790;SDS011;48830;53.426;10.300;2023-04-06T04:37:43;8.43;;;5.30;;
62790;SDS011;48830;53.426;10.300;2023-04-06T04:40:09;11.70;;;5.90;;
62790;SDS011;48830;53.426;10.300;2023-04-06T04:43:05;13.40;;;6.03;;
62790;SDS011;48830;53.426;10.300;2023-04-06T04:45:33;12.13;;;5.60;;
62790;SDS011;48830;53.426;10.300;2023-04-06T04:48:05;9.63;;;5.47;;
62790;SDS011;48830;53.426;10.300;2023-04-06T04:50:44;9.33;;;5.67;;
62790;SDS011;48830;53.426;10.300;2023-04-06T04:53:10;10.17;;;5.87;;
62790;SDS011;48830;53.426;10.300;2023-04-06T04:55:36;9.77;;;5.93;;
62790;SDS011;48830;53.426;10.300;2023-04-06T04:58:03;10.13;;;5.43;;
62790;SDS011;48830;53.426;10.300;2023-04-06T05:00:43;10.27;;;5.47;;
62790;SDS011;48830;53.426;10.300;2023-04-06T05:03:09;9.60;;;5.90;;
62790;SDS011;48830;53.426;10.300;2023-04-06T05:05:44;9.53;;;5.97;;
62790;SDS011;48830;53.426;10.300;2023-04-06T05:08:12;11.90;;;6.20;;
62790;SDS011;48830;53.426;10.300;2023-04-06T05:10:44;13.93;;;6.60;;
62790;SDS011;48830;53.426;10.300;2023-04-06T05:13:10;11.80;;;6.40;;
62790;SDS011;48830;53.426;10.300;2023-04-06T05:15:36;12.33;;;6.00;;
62790;SDS011;48830;53.426;10.300;2023-04-06T05:18:17;16.63;;;6.73;;
62790;SDS011;48830;53.426;10.300;2023-04-06T05:20:42;14.13;;;7.30;;
62790;SDS011;48830;53.426;10.300;2023-04-06T05:23:10;16.03;;;7.10;;
62790;SDS011;48830;53.426;10.300;2023-04-06T05:25:35;17.17;;;7.53;;
62790;SDS011;48830;53.426;10.300;2023-04-06T05:28:11;17.57;;;7.33;;
62790;SDS011;48830;53.426;10.300;2023-04-06T05:30:39;18.43;;;6.90;;
62790;SDS011;48830;53.426;10.300;2023-04-06T05:33:07;16.60;;;6.83;;
62790;SDS011;48830;53.426;10.300;2023-04-06T05:35:46;14.37;;;6.77;;
62790;SDS011;48830;53.426;10.300;2023-04-06T05:38:12;21.87;;;6.30;;
62790;SDS011;48830;53.426;10.300;2023-04-06T05:40:38;23.57;;;6.87;;
62790;SDS011;48830;53.426;10.300;2023-04-06T05:43:07;20.70;;;6.87;;
62790;SDS011;48830;53.426;10.300;2023-04-06T05:45:33;21.10;;;7.33;;
62790;SDS011;48830;53.426;10.300;2023-04-06T05:48:02;24.77;;;7.57;;
62790;SDS011;48830;53.426;10.300;2023-04-06T05:50:29;19.77;;;7.03;;
62790;SDS011;48830;53.426;10.300;2023-04-06T05:52:56;12.67;;;6.10;;
62790;SDS011;48830;53.426;10.300;2023-04-06T05:55:25;14.10;;;6.43;;
62790;SDS011;48830;53.426;10.300;2023-04-06T05:58:03;10.30;;;6.30;;
62790;SDS011;48830;53.426;10.300;2023-04-06T06:00:28;9.50;;;5.90;;
62790;SDS011;48830;53.426;10.300;2023-04-06T06:03:01;15.00;;;6.33;;
62790;SDS011;48830;53.426;10.300;2023-04-06T06:05:30;13.27;;;6.13;;
62790;SDS011;48830;53.426;10.300;2023-04-06T06:08:00;11.73;;;6.23;;
62790;SDS011;48830;53.426;10.300;2023-04-06T06:10:28;12.07;;;6.17;;
62790;SDS011;48830;53.426;10.300;2023-04-06T06:12:54;11.30;;;5.70;;
62790;SDS011;48830;53.426;10.300;2023-04-06T06:15:20;9.77;;;5.63;;
62790;SDS011;48830;53.426;10.300;2023-04-06T06:17:47;10.87;;;6.30;;
62790;SDS011;48830;53.426;10.300;2023-04-06T06:20:12;10.93;;;6.07;;
62790;SDS011;48830;53.426;10.300;2023-04-06T06:22:38;10.23;;;6.50;;
62790;SDS011;48830;53.426;10.300;2023-04-06T06:25:08;9.97;;;5.87;;
62790;SDS011;48830;53.426;10.300;2023-04-06T06:27:33;8.97;;;5.93;;
62790;SDS011;48830;53.426;10.300;2023-04-06T06:29:59;9.60;;;6.40;;
62790;SDS011;48830;53.426;10.300;2023-04-06T06:32:25;11.43;;;6.30;;
62790;SDS011;48830;53.426;10.300;2023-04-06T06:34:52;11.37;;;6.60;;
62790;SDS011;48830;53.426;10.300;2023-04-06T06:37:18;10.50;;;6.20;;
62790;SDS011;48830;53.426;10.300;2023-04-06T06:39:43;14.07;;;6.53;;
62790;SDS011;48830;53.426;10.300;2023-04-06T06:42:09;11.20;;;6.30;;
62790;SDS011;48830;53.426;10.300;2023-04-06T06:45:00;9.47;;;6.57;;
62790;SDS011;48830;53.426;10.300;2023-04-06T06:47:26;9.00;;;5.57;;
62790;SDS011;48830;53.426;10.300;2023-04-06T06:49:51;9.80;;;6.10;;
62790;SDS011;48830;53.426;10.300;2023-04-06T06:52:17;9.27;;;5.80;;
62790;SDS011;48830;53.426;10.300;2023-04-06T06:54:43;10.00;;;5.60;;
62790;SDS011;48830;53.426;10.300;2023-04-06T06:57:08;9.70;;;5.73;;
62790;SDS011;48830;53.426;10.300;2023-04-06T06:59:34;9.23;;;5.37;;
62790;SDS011;48830;53.426;10.300;2023-04-06T07:02:00;9.53;;;5.10;;
62790;SDS011;48830;53.426;10.300;2023-04-06T07:04:26;10.90;;;5.30;;
62790;SDS011;48830;53.426;10.300;2023-04-06T07:06:51;9.17;;;5.47;;
62790;SDS011;48830;53.426;10.300;2023-04-06T07:09:17;9.83;;;5.13;;
62790;SDS011;48830;53.426;10.300;2023-04-06T07:11:44;7.57;;;4.80;;
62790;SDS011;48830;53.426;10.300;2023-04-06T07:14:09;10.03;;;4.90;;
62790;SDS011;48830;53.426;10.300;2023-04-06T07:16:36;7.37;;;4.83;;
62790;SDS011;48830;53.426;10.300;2023-04-06T07:19:03;8.53;;;5.17;;
62790;SDS011;48830;53.426;10.300;2023-04-06T07:21:28;7.23;;;5.00;;
62790;SDS011;48830;53.426;10.300;2023-04-06T07:23:54;8.23;;;5.33;;
62790;SDS011;48830;53.426;10.300;2023-04-06T07:26:20;9.85;;;5.63;;
62790;SDS011;48830;53.426;10.300;2023-04-06T07:28:45;8.73;;;4.53;;
62790;SDS011;48830;53.426;10.300;2023-04-06T07:31:12;11.63;;;4.80;;
62790;SDS011;48830;53.426;10.300;2023-04-06T07:33:37;8.90;;;5.07;;
62790;SDS011;48830;53.426;10.300;2023-04-06T07:36:03;8.48;;;4.72;;
62790;SDS011;48830;53.426;10.300;2023-04-06T07:38:29;8.27;;;4.77;;
62790;SDS011;48830;53.426;10.300;2023-04-06T07:40:55;9.13;;;4.75;;
62790;SDS011;48830;53.426;10.300;2023-04-06T07:43:20;9.82;;;4.47;;
62790;SDS011;48830;53.426;10.300;2023-04-06T07:45:46;8.73;;;4.40;;
62790;SDS011;48830;53.426;10.300;2023-04-06T07:48:14;9.60;;;4.60;;
62790;SDS011;48830;53.426;10.300;2023-04-06T07:50:40;7.13;;;4.40;;
62790;SDS011;48830;53.426;10.300;2023-04-06T07:53:07;7.03;;;4.10;;
62790;SDS011;48830;53.426;10.300;2023-04-06T07:55:34;10.00;;;4.63;;
62790;SDS011;48830;53.426;10.300;2023-04-06T07:57:59;7.97;;;4.13;;
62790;SDS011;48830;53.426;10.300;2023-04-06T08:00:25;7.13;;;4.40;;
62790;SDS011;48830;53.426;10.300;2023-04-06T08:02:51;7.07;;;3.97;;
62790;SDS011;48830;53.426;10.300;2023-04-06T08:05:16;7.60;;;4.43;;
62790;SDS011;48830;53.426;10.300;2023-04-06T08:07:43;7.50;;;4.10;;
62790;SDS011;48830;53.426;10.300;2023-04-06T08:10:08;6.53;;;4.13;;
62790;SDS011;48830;53.426;10.300;2023-04-06T08:12:34;6.72;;;4.05;;
62790;SDS011;48830;53.426;10.300;2023-04-06T08:15:00;7.63;;;4.13;;
62790;SDS011;48830;53.426;10.300;2023-04-06T08:17:25;7.65;;;4.35;;
62790;SDS011;48830;53.426;10.300;2023-04-06T08:19:55;8.00;;;4.28;;
62790;SDS011;48830;53.426;10.300;2023-04-06T08:22:20;7.65;;;4.35;;
62790;SDS011;48830;53.426;10.300;2023-04-06T08:24:46;10.20;;;4.00;;
62790;SDS011;48830;53.426;10.300;2023-04-06T08:27:11;8.52;;;4.60;;
62790;SDS011;48830;53.426;10.300;2023-04-06T08:29:39;8.32;;;4.70;;
62790;SDS011;48830;53.426;10.300;2023-04-06T08:32:04;10.63;;;5.78;;
62790;SDS011;48830;53.426;10.300;2023-04-06T08:34:34;8.65;;;4.57;;
62790;SDS011;48830;53.426;10.300;2023-04-06T08:37:01;8.68;;;5.10;;
62790;SDS011;48830;53.426;10.300;2023-04-06T08:39:27;7.38;;;4.80;;
62790;SDS011;48830;53.426;10.300;2023-04-06T08:41:53;7.93;;;4.88;;
62790;SDS011;48830;53.426;10.300;2023-04-06T08:44:22;7.72;;;4.32;;
62790;SDS011;48830;53.426;10.300;2023-04-06T08:46:48;8.15;;;4.25;;
62790;SDS011;48830;53.426;10.300;2023-04-06T08:49:15;7.88;;;4.38;;
62790;SDS011;48830;53.426;10.300;2023-04-06T08:51:41;10.13;;;4.80;;
62790;SDS011;48830;53.426;10.300;2023-04-06T08:54:07;6.88;;;4.38;;
62790;SDS011;48830;53.426;10.300;2023-04-06T08:56:33;8.35;;;4.55;;
62790;SDS011;48830;53.426;10.300;2023-04-06T08:59:02;7.90;;;4.40;;
62790;SDS011;48830;53.426;10.300;2023-04-06T09:01:29;11.07;;;4.03;;
62790;SDS011;48830;53.426;10.300;2023-04-06T09:03:59;6.45;;;3.78;;
62790;SDS011;48830;53.426;10.300;2023-04-06T09:06:26;7.72;;;4.43;;
62790;SDS011;48830;53.426;10.300;2023-04-06T09:08:52;8.40;;;4.43;;
62790;SDS011;48830;53.426;10.300;2023-04-06T09:11:17;6.40;;;4.10;;
62790;SDS011;48830;53.426;10.300;2023-04-06T09:13:53;8.15;;;3.92;;
62790;SDS011;48830;53.426;10.300;2023-04-06T09:16:20;9.25;;;4.30;;
62790;SDS011;48830;53.426;10.300;2023-04-06T09:18:46;6.95;;;3.75;;
62790;SDS011;48830;53.426;10.300;2023-04-06T09:21:12;7.70;;;3.70;;
62790;SDS011;48830;53.426;10.300;2023-04-06T09:23:38;8.23;;;4.10;;
62790;SDS011;48830;53.426;10.300;2023-04-06T09:28:52;5.63;;;3.10;;
62790;SDS011;48830;53.426;10.300;2023-04-06T09:31:23;5.50;;;2.80;;
62790;SDS011;48830;53.426;10.300;2023-04-06T09:33:49;5.75;;;2.90;;
62790;SDS011;48830;53.426;10.300;2023-04-06T09:36:17;5.55;;;2.78;;
62790;SDS011;48830;53.426;10.300;2023-04-06T09:38:52;5.68;;;2.65;;
62790;SDS011;48830;53.426;10.300;2023-04-06T09:43:47;7.10;;;3.42;;
62790;SDS011;48830;53.426;10.300;2023-04-06T09:46:12;5.32;;;3.10;;
62790;SDS011;48830;53.426;10.300;2023-04-06T09:48:40;6.47;;;3.42;;
62790;SDS011;48830;53.426;10.300;2023-04-06T09:51:05;6.10;;;3.53;;
62790;SDS011;48830;53.426;10.300;2023-04-06T09:53:33;6.60;;;3.45;;
62790;SDS011;48830;53.426;10.300;2023-04-06T09:56:02;6.47;;;3.65;;
62790;SDS011;48830;53.426;10.300;2023-04-06T09:58:34;7.07;;;4.03;;
62790;SDS011;48830;53.426;10.300;2023-04-06T10:01:07;6.90;;;3.80;;
62790;SDS011;48830;53.426;10.300;2023-04-06T10:03:41;7.03;;;3.75;;
62790;SDS011;48830;53.426;10.300;2023-04-06T10:06:15;5.80;;;3.53;;
62790;SDS011;48830;53.426;10.300;2023-04-06T10:08:45;7.60;;;3.88;;
62790;SDS011;48830;53.426;10.300;2023-04-06T10:11:13;7.25;;;4.60;;
62790;SDS011;48830;53.426;10.300;2023-04-06T10:13:38;8.73;;;4.10;;
62790;SDS011;48830;53.426;10.300;2023-04-06T10:16:04;7.40;;;4.38;;
62790;SDS011;48830;53.426;10.300;2023-04-06T10:18:31;6.97;;;3.90;;
62790;SDS011;48830;53.426;10.300;2023-04-06T10:21:06;6.75;;;3.90;;
62790;SDS011;48830;53.426;10.300;2023-04-06T10:23:49;6.28;;;4.00;;
62790;SDS011;48830;53.426;10.300;2023-04-06T10:26:17;7.30;;;3.90;;
62790;SDS011;48830;53.426;10.300;2023-04-06T10:28:46;7.50;;;4.68;;
62790;SDS011;48830;53.426;10.300;2023-04-06T10:31:12;8.40;;;4.07;;
62790;SDS011;48830;53.426;10.300;2023-04-06T10:33:38;7.80;;;4.35;;
62790;SDS011;48830;53.426;10.300;2023-04-06T10:36:09;8.38;;;4.00;;
62790;SDS011;48830;53.426;10.300;2023-04-06T10:38:38;7.95;;;4.90;;
62790;SDS011;48830;53.426;10.300;2023-04-06T10:41:05;9.55;;;4.50;;
62790;SDS011;48830;53.426;10.300;2023-04-06T10:43:35;8.07;;;4.22;;
62790;SDS011;48830;53.426;10.300;2023-04-06T10:46:02;7.60;;;4.82;;
62790;SDS011;48830;53.426;10.300;2023-04-06T10:48:42;9.07;;;4.28;;
62790;SDS011;48830;53.426;10.300;2023-04-06T10:51:15;7.75;;;4.75;;
62790;SDS011;48830;53.426;10.300;2023-04-06T10:53:42;8.07;;;4.53;;
62790;SDS011;48830;53.426;10.300;2023-04-06T10:56:10;8.60;;;5.00;;
62790;SDS011;48830;53.426;10.300;2023-04-06T10:58:37;10.15;;;4.80;;
62790;SDS011;48830;53.426;10.300;2023-04-06T11:01:02;7.95;;;4.90;;
62790;SDS011;48830;53.426;10.300;2023-04-06T11:03:28;8.70;;;4.82;;
62790;SDS011;48830;53.426;10.300;2023-04-06T11:05:54;7.88;;;4.82;;
62790;SDS011;48830;53.426;10.300;2023-04-06T11:08:26;13.15;;;5.25;;
62790;SDS011;48830;53.426;10.300;2023-04-06T11:11:13;9.50;;;5.07;;
62790;SDS011;48830;53.426;10.300;2023-04-06T11:16:06;8.68;;;5.28;;
62790;SDS011;48830;53.426;10.300;2023-04-06T11:18:32;8.13;;;5.28;;
62790;SDS011;48830;53.426;10.300;2023-04-06T11:20:57;11.57;;;5.68;;
62790;SDS011;48830;53.426;10.300;2023-04-06T11:23:23;7.72;;;5.20;;
62790;SDS011;48830;53.426;10.300;2023-04-06T11:25:53;8.60;;;5.50;;
62790;SDS011;48830;53.426;10.300;2023-04-06T11:28:19;8.27;;;5.40;;
62790;SDS011;48830;53.426;10.300;2023-04-06T11:30:45;8.70;;;5.50;;
62790;SDS011;48830;53.426;10.300;2023-04-06T11:33:19;7.78;;;5.57;;
62790;SDS011;48830;53.426;10.300;2023-04-06T11:35:45;9.70;;;5.97;;
62790;SDS011;48830;53.426;10.300;2023-04-06T11:38:11;8.73;;;6.03;;
62790;SDS011;48830;53.426;10.300;2023-04-06T11:40:36;9.13;;;5.47;;
62790;SDS011;48830;53.426;10.300;2023-04-06T11:43:02;9.93;;;6.25;;
62790;SDS011;48830;53.426;10.300;2023-04-06T11:45:29;8.63;;;5.72;;
62790;SDS011;48830;53.426;10.300;2023-04-06T11:48:04;8.73;;;5.72;;
62790;SDS011;48830;53.426;10.300;2023-04-06T11:50:33;8.30;;;5.55;;
62790;SDS011;48830;53.426;10.300;2023-04-06T11:53:00;9.30;;;6.10;;
62790;SDS011;48830;53.426;10.300;2023-04-06T11:55:26;8.98;;;6.05;;
62790;SDS011;48830;53.426;10.300;2023-04-06T11:57:52;8.65;;;5.88;;
62790;SDS011;48830;53.426;10.300;2023-04-06T12:00:18;8.23;;;5.50;;
62790;SDS011;48830;53.426;10.300;2023-04-06T12:02:46;8.82;;;5.80;;
62790;SDS011;48830;53.426;10.300;2023-04-06T12:05:12;12.57;;;6.72;;
62790;SDS011;48830;53.426;10.300;2023-04-06T12:07:38;10.23;;;6.05;;
62790;SDS011;48830;53.426;10.300;2023-04-06T12:10:04;8.98;;;6.30;;
62790;SDS011;48830;53.426;10.300;2023-04-06T12:12:30;9.80;;;6.05;;
62790;SDS011;48830;53.426;10.300;2023-04-06T12:14:55;7.40;;;5.35;;
62790;SDS011;48830;53.426;10.300;2023-04-06T12:17:22;11.00;;;6.05;;
62790;SDS011;48830;53.426;10.300;2023-04-06T12:19:48;9.25;;;6.22;;
62790;SDS011;48830;53.426;10.300;2023-04-06T12:22:14;8.70;;;5.60;;
62790;SDS011;48830;53.426;10.300;2023-04-06T12:24:40;8.95;;;6.22;;
62790;SDS011;48830;53.426;10.300;2023-04-06T12:27:06;8.30;;;5.80;;
62790;SDS011;48830;53.426;10.300;2023-04-06T12:29:31;9.40;;;5.55;;
62790;SDS011;48830;53.426;10.300;2023-04-06T12:31:57;8.75;;;6.13;;
62790;SDS011;48830;53.426;10.300;2023-04-06T12:34:23;9.27;;;5.82;;
62790;SDS011;48830;53.426;10.300;2023-04-06T12:36:48;8.57;;;5.70;;
62790;SDS011;48830;53.426;10.300;2023-04-06T12:39:13;12.10;;;5.82;;
62790;SDS011;48830;53.426;10.300;2023-04-06T12:41:39;10.57;;;6.00;;
62790;SDS011;48830;53.426;10.300;2023-04-06T12:44:07;10.00;;;5.70;;
62790;SDS011;48830;53.426;10.300;2023-04-06T12:46:33;9.13;;;5.70;;
62790;SDS011;48830;53.426;10.300;2023-04-06T12:48:58;9.60;;;5.63;;
62790;SDS011;48830;53.426;10.300;2023-04-06T12:51:25;8.82;;;5.80;;
62790;SDS011;48830;53.426;10.300;2023-04-06T12:53:52;8.82;;;5.28;;
62790;SDS011;48830;53.426;10.300;2023-04-06T12:56:18;8.48;;;5.70;;
62790;SDS011;48830;53.426;10.300;2023-04-06T12:58:44;8.60;;;5.78;;
62790;SDS011;48830;53.426;10.300;2023-04-06T13:01:10;9.63;;;6.63;;
62790;SDS011;48830;53.426;10.300;2023-04-06T13:03:42;8.25;;;5.63;;
62790;SDS011;48830;53.426;10.300;2023-04-06T13:06:08;9.50;;;5.90;;
62790;SDS011;48830;53.426;10.300;2023-04-06T13:08:35;9.25;;;5.70;;
62790;SDS011;48830;53.426;10.300;2023-04-06T13:11:02;12.18;;;6.25;;
62790;SDS011;48830;53.426;10.300;2023-04-06T13:13:28;11.02;;;6.72;;
62790;SDS011;48830;53.426;10.300;2023-04-06T13:15:55;9.35;;;6.07;;
62790;SDS011;48830;53.426;10.300;2023-04-06T13:18:28;9.70;;;5.70;;
62790;SDS011;48830;53.426;10.300;2023-04-06T13:20:55;8.75;;;6.05;;
62790;SDS011;48830;53.426;10.300;2023-04-06T13:23:22;9.60;;;6.18;;
62790;SDS011;48830;53.426;10.300;2023-04-06T13:25:48;8.32;;;5.95;;
62790;SDS011;48830;53.426;10.300;2023-04-06T13:28:22;8.27;;;6.03;;
62790;SDS011;48830;53.426;10.300;2023-04-06T13:30:48;9.90;;;5.40;;
62790;SDS011;48830;53.426;10.300;2023-04-06T13:33:14;8.75;;;6.13;;
62790;SDS011;48830;53.426;10.300;2023-04-06T13:35:39;8.93;;;5.97;;
62790;SDS011;48830;53.426;10.300;2023-04-06T13:38:05;9.20;;;6.30;;
62790;SDS011;48830;53.426;10.300;2023-04-06T13:40:30;9.07;;;5.40;;
62790;SDS011;48830;53.426;10.300;2023-04-06T13:42:56;9.13;;;5.90;;
62790;SDS011;48830;53.426;10.300;2023-04-06T13:45:21;11.77;;;7.10;;
62790;SDS011;48830;53.426;10.300;2023-04-06T13:47:47;9.50;;;5.95;;
62790;SDS011;48830;53.426;10.300;2023-04-06T13:50:12;10.18;;;5.57;;
62790;SDS011;48830;53.426;10.300;2023-04-06T13:52:38;8.55;;;5.97;;
62790;SDS011;48830;53.426;10.300;2023-04-06T13:55:03;8.80;;;5.93;;
62790;SDS011;48830;53.426;10.300;2023-04-06T13:57:30;9.73;;;6.43;;
62790;SDS011;48830;53.426;10.300;2023-04-06T13:59:55;10.45;;;6.47;;
62790;SDS011;48830;53.426;10.300;2023-04-06T14:02:21;7.97;;;5.97;;
62790;SDS011;48830;53.426;10.300;2023-04-06T14:04:52;9.35;;;6.55;;
62790;SDS011;48830;53.426;10.300;2023-04-06T14:07:20;8.73;;;6.18;;
62790;SDS011;48830;53.426;10.300;2023-04-06T14:09:46;9.13;;;6.55;;
62790;SDS011;48830;53.426;10.300;2023-04-06T14:12:11;9.40;;;6.20;;
62790;SDS011;48830;53.426;10.300;2023-04-06T14:14:36;9.32;;;6.32;;
62790;SDS011;48830;53.426;10.300;2023-04-06T14:17:02;9.05;;;6.00;;
62790;SDS011;48830;53.426;10.300;2023-04-06T14:19:27;9.45;;;5.97;;
62790;SDS011;48830;53.426;10.300;2023-04-06T14:21:53;10.40;;;6.07;;
62790;SDS011;48830;53.426;10.300;2023-04-06T14:24:19;10.32;;;6.72;;
62790;SDS011;48830;53.426;10.300;2023-04-06T14:26:45;10.07;;;6.25;;
62790;SDS011;48830;53.426;10.300;2023-04-06T14:29:11;9.00;;;6.35;;
62790;SDS011;48830;53.426;10.300;2023-04-06T14:31:36;7.57;;;5.78;;
62790;SDS011;48830;53.426;10.300;2023-04-06T14:34:02;9.63;;;5.78;;
62790;SDS011;48830;53.426;10.300;2023-04-06T14:36:29;9.30;;;6.03;;
62790;SDS011;48830;53.426;10.300;2023-04-06T14:39:01;10.23;;;6.55;;
62790;SDS011;48830;53.426;10.300;2023-04-06T14:41:29;8.80;;;6.43;;